createdAt,value
2024-05-09T00:23:16.167Z,6.5
2024-05-09T00:53:17.635Z,6.6
2024-05-09T01:23:17.784Z,6.8
2024-05-09T01:53:18.291Z,8.7
2024-05-09T02:23:18.986Z,10.5
2024-05-09T02:53:19.516Z,6.2
2024-05-09T03:23:20.627Z,4.1
2024-05-09T03:53:21.695Z,4.1
2024-05-09T04:23:21.553Z,6.6
2024-05-09T04:53:22.240Z,3.8
2024-05-09T05:23:23.947Z,8.5
2024-05-09T05:53:24.550Z,11.9
2024-05-09T06:23:26.836Z,14.2
2024-05-09T06:53:29.736Z,17.4
2024-05-09T07:23:32.583Z,17.3
2024-05-09T07:53:44.250Z,14.7
2024-05-09T08:23:38.571Z,12
2024-05-09T08:53:41.903Z,11.4
2024-05-09T09:23:45.286Z,10.7
2024-05-09T09:53:51.407Z,9.4
2024-05-09T10:23:55.940Z,11.2
2024-05-09T10:53:57.820Z,12.2
2024-05-09T11:24:00.079Z,11.2
2024-05-09T11:54:03.915Z,9.8
2024-05-09T12:24:08.008Z,8.9
2024-05-09T12:54:12.352Z,10.4
2024-05-09T13:24:17.835Z,12.3
2024-05-09T13:54:22.527Z,13.6
2024-05-09T14:24:24.493Z,16.4
2024-05-09T14:54:28.609Z,15
2024-05-09T15:24:32.627Z,16.3
2024-05-09T15:54:36.930Z,12.5
2024-05-09T16:24:40.757Z,11.8
2024-05-09T16:54:44.268Z,10.3
2024-05-09T17:24:47.725Z,10.7
2024-05-09T17:54:50.872Z,10.5
2024-05-09T18:24:54.012Z,10.1
2024-05-09T18:54:56.687Z,13
2024-05-09T19:24:58.976Z,11.7
2024-05-09T19:55:01.521Z,11.3
2024-05-09T20:25:04.275Z,12
2024-05-09T20:55:06.043Z,13.3
2024-05-09T21:25:07.719Z,13
2024-05-09T21:55:09.480Z,13.4
2024-05-09T22:25:10.889Z,13.7
2024-05-09T22:55:12.188Z,14.7
2024-05-09T23:25:13.128Z,13.1
2024-05-09T23:55:14.295Z,13.6
